sensor_id;sensor_type;location;lat;lon;timestamp;pressure;altitude;pressure_sealevel;temperature;humidity
62847;BME280;49477;35.676;139.586;2023-04-08T00:01:55;99872.16;;;25.38;33.00
62847;BME280;49477;35.676;139.586;2023-04-08T00:04:25;99864.86;;;25.64;33.60
62847;BME280;49477;35.676;139.586;2023-04-08T00:06:54;99868.85;;;25.67;33.21
62847;BME280;49477;35.676;139.586;2023-04-08T00:09:24;99854.84;;;25.43;33.11
62847;BME280;49477;35.676;139.586;2023-04-08T00:11:53;99848.27;;;25.97;33.44
62847;BME280;49477;35.676;139.586;2023-04-08T00:14:23;99842.25;;;25.95;31.22
62847;BME280;49477;35.676;139.586;2023-04-08T00:16:52;99843.44;;;25.53;31.87
62847;BME280;49477;35.676;139.586;2023-04-08T00:19:22;99837.91;;;25.53;33.03
62847;BME280;49477;35.676;139.586;2023-04-08T00:21:51;99839.25;;;25.51;33.58
62847;BME280;49477;35.676;139.586;2023-04-08T00:24:21;99832.34;;;25.52;33.32
62847;BME280;49477;35.676;139.586;2023-04-08T00:26:50;99832.16;;;25.52;32.93
62847;BME280;49477;35.676;139.586;2023-04-08T00:29:20;99834.30;;;25.88;32.76
62847;BME280;49477;35.676;139.586;2023-04-08T00:31:49;99824.76;;;25.89;32.75
62847;BME280;49477;35.676;139.586;2023-04-08T00:34:19;99818.35;;;25.65;32.53
62847;BME280;49477;35.676;139.586;2023-04-08T00:36:48;99820.38;;;25.66;32.63
62847;BME280;49477;35.676;139.586;2023-04-08T00:39:17;99818.75;;;25.66;32.75
62847;BME280;49477;35.676;139.586;2023-04-08T00:41:47;99821.11;;;25.67;32.69
62847;BME280;49477;35.676;139.586;2023-04-08T00:44:16;99818.09;;;25.96;32.71
62847;BME280;49477;35.676;139.586;2023-04-08T00:46:45;99815.14;;;25.72;32.80
62847;BME280;49477;35.676;139.586;2023-04-08T00:49:14;99815.85;;;25.75;32.78
62847;BME280;49477;35.676;139.586;2023-04-08T00:51:44;99813.86;;;25.81;32.67
62847;BME280;49477;35.676;139.586;2023-04-08T00:54:13;99811.45;;;25.80;32.80
62847;BME280;49477;35.676;139.586;2023-04-08T00:56:43;99810.08;;;25.92;32.46
62847;BME280;49477;35.676;139.586;2023-04-08T00:59:17;99810.49;;;25.90;32.72
62847;BME280;49477;35.676;139.586;2023-04-08T01:01:54;99804.67;;;25.91;32.89
62847;BME280;49477;35.676;139.586;2023-04-08T01:04:28;99798.84;;;25.96;33.32
62847;BME280;49477;35.676;139.586;2023-04-08T01:07:06;99800.87;;;25.81;33.27
62847;BME280;49477;35.676;139.586;2023-04-08T01:09:38;99801.36;;;26.15;33.65
62847;BME280;49477;35.676;139.586;2023-04-08T01:12:17;99795.48;;;26.27;33.60
62847;BME280;49477;35.676;139.586;2023-04-08T01:14:47;99789.88;;;26.33;33.85
62847;BME280;49477;35.676;139.586;2023-04-08T01:17:18;99785.19;;;26.35;34.31
62847;BME280;49477;35.676;139.586;2023-04-08T01:19:48;99784.15;;;26.02;34.84
62847;BME280;49477;35.676;139.586;2023-04-08T01:22:28;99785.44;;;26.18;35.17
62847;BME280;49477;35.676;139.586;2023-04-08T01:25:07;99781.12;;;26.14;35.54
62847;BME280;49477;35.676;139.586;2023-04-08T01:27:38;99779.56;;;26.11;35.83
62847;BME280;49477;35.676;139.586;2023-04-08T01:30:08;99775.20;;;25.87;35.99
62847;BME280;49477;35.676;139.586;2023-04-08T01:32:39;99777.89;;;26.13;36.22
62847;BME280;49477;35.676;139.586;2023-04-08T01:35:11;99785.14;;;26.14;36.42
62847;BME280;49477;35.676;139.586;2023-04-08T01:37:42;99788.88;;;26.16;36.60
62847;BME280;49477;35.676;139.586;2023-04-08T01:40:12;99789.68;;;25.90;36.82
62847;BME280;49477;35.676;139.586;2023-04-08T01:42:42;99781.39;;;26.14;36.81
62847;BME280;49477;35.676;139.586;2023-04-08T01:45:13;99779.30;;;26.03;36.54
62847;BME280;49477;35.676;139.586;2023-04-08T01:47:44;99782.20;;;26.33;36.40
62847;BME280;49477;35.676;139.586;2023-04-08T01:50:14;99786.04;;;25.97;36.24
62847;BME280;49477;35.676;139.586;2023-04-08T01:52:45;99781.62;;;26.03;36.11
62847;BME280;49477;35.676;139.586;2023-04-08T01:55:16;99777.93;;;26.14;35.90
62847;BME280;49477;35.676;139.586;2023-04-08T01:57:49;99774.25;;;26.20;35.70
62847;BME280;49477;35.676;139.586;2023-04-08T02:00:24;99777.48;;;26.68;35.66
62847;BME280;49477;35.676;139.586;2023-04-08T02:02:54;99774.33;;;26.29;35.45
62847;BME280;49477;35.676;139.586;2023-04-08T02:05:24;99777.94;;;26.57;35.31
62847;BME280;49477;35.676;139.586;2023-04-08T02:07:53;99775.21;;;26.59;35.15
62847;BME280;49477;35.676;139.586;2023-04-08T02:10:23;99774.83;;;26.36;35.20
62847;BME280;49477;35.676;139.586;2023-04-08T02:12:52;99778.04;;;26.32;35.23
62847;BME280;49477;35.676;139.586;2023-04-08T02:15:22;99776.71;;;26.35;35.15
62847;BME280;49477;35.676;139.586;2023-04-08T02:17:54;99779.35;;;26.39;35.00
62847;BME280;49477;35.676;139.586;2023-04-08T02:20:29;99778.37;;;26.37;35.01
62847;BME280;49477;35.676;139.586;2023-04-08T02:23:05;99781.50;;;26.67;34.86
62847;BME280;49477;35.676;139.586;2023-04-08T02:25:39;99781.14;;;26.88;34.85
62847;BME280;49477;35.676;139.586;2023-04-08T02:28:10;99778.81;;;26.40;34.85
62847;BME280;49477;35.676;139.586;2023-04-08T02:30:42;99780.19;;;26.64;34.80
62847;BME280;49477;35.676;139.586;2023-04-08T02:33:12;99775.56;;;26.63;34.83
62847;BME280;49477;35.676;139.586;2023-04-08T02:35:41;99776.61;;;26.41;34.81
62847;BME280;49477;35.676;139.586;2023-04-08T02:38:12;99778.82;;;26.41;34.76
62847;BME280;49477;35.676;139.586;2023-04-08T02:40:42;99776.16;;;26.40;34.72
62847;BME280;49477;35.676;139.586;2023-04-08T02:43:11;99785.18;;;26.45;34.52
62847;BME280;49477;35.676;139.586;2023-04-08T02:45:41;99780.35;;;26.90;34.53
62847;BME280;49477;35.676;139.586;2023-04-08T02:48:11;99777.63;;;26.42;34.57
62847;BME280;49477;35.676;139.586;2023-04-08T02:50:40;99777.11;;;26.95;34.39
62847;BME280;49477;35.676;139.586;2023-04-08T02:53:10;99776.62;;;26.49;34.39
62847;BME280;49477;35.676;139.586;2023-04-08T02:55:39;99779.62;;;26.49;34.46
62847;BME280;49477;35.676;139.586;2023-04-08T02:58:09;99780.97;;;26.45;34.44
62847;BME280;49477;35.676;139.586;2023-04-08T03:00:38;99778.47;;;26.65;34.47
62847;BME280;49477;35.676;139.586;2023-04-08T03:03:08;99778.63;;;26.64;34.41
62847;BME280;49477;35.676;139.586;2023-04-08T03:05:37;99775.82;;;26.59;34.55
62847;BME280;49477;35.676;139.586;2023-04-08T03:08:07;99768.47;;;26.35;34.53
62847;BME280;49477;35.676;139.586;2023-04-08T03:10:36;99764.60;;;26.60;34.50
62847;BME280;49477;35.676;139.586;2023-04-08T03:13:05;99763.44;;;26.39;34.37
62847;BME280;49477;35.676;139.586;2023-04-08T03:15:35;99760.38;;;26.37;34.47
62847;BME280;49477;35.676;139.586;2023-04-08T03:18:04;99754.72;;;26.38;34.41
62847;BME280;49477;35.676;139.586;2023-04-08T03:20:34;99751.09;;;26.40;34.35
62847;BME280;49477;35.676;139.586;2023-04-08T03:23:03;99748.40;;;26.41;34.34
62847;BME280;49477;35.676;139.586;2023-04-08T03:25:32;99741.57;;;26.41;34.32
62847;BME280;49477;35.676;139.586;2023-04-08T03:28:02;99737.19;;;26.43;34.31
62847;BME280;49477;35.676;139.586;2023-04-08T03:30:32;99732.34;;;26.42;34.30
62847;BME280;49477;35.676;139.586;2023-04-08T03:33:01;99729.50;;;26.64;34.22
62847;BME280;49477;35.676;139.586;2023-04-08T03:35:30;99725.32;;;26.43;34.19
62847;BME280;49477;35.676;139.586;2023-04-08T03:38:00;99725.59;;;26.43;34.23
62847;BME280;49477;35.676;139.586;2023-04-08T03:40:30;99718.37;;;26.45;34.15
62847;BME280;49477;35.676;139.586;2023-04-08T03:42:59;99713.66;;;26.49;34.11
62847;BME280;49477;35.676;139.586;2023-04-08T03:45:29;99713.53;;;26.51;33.94
62847;BME280;49477;35.676;139.586;2023-04-08T03:47:58;99716.88;;;26.48;34.07
62847;BME280;49477;35.676;139.586;2023-04-08T03:50:27;99726.17;;;26.24;34.03
62847;BME280;49477;35.676;139.586;2023-04-08T03:52:57;99731.17;;;26.97;33.91
62847;BME280;49477;35.676;139.586;2023-04-08T03:55:26;99736.95;;;26.75;33.81
62847;BME280;49477;35.676;139.586;2023-04-08T03:57:55;99732.19;;;26.51;33.77
62847;BME280;49477;35.676;139.586;2023-04-08T04:00:25;99726.07;;;26.95;33.80
62847;BME280;49477;35.676;139.586;2023-04-08T04:02:54;99722.76;;;26.74;33.81
62847;BME280;49477;35.676;139.586;2023-04-08T04:05:24;99723.78;;;26.56;33.43
62847;BME280;49477;35.676;139.586;2023-04-08T04:07:53;99726.89;;;26.59;33.98
62847;BME280;49477;35.676;139.586;2023-04-08T04:10:23;99728.83;;;26.56;34.37
62847;BME280;49477;35.676;139.586;2023-04-08T04:12:52;99731.11;;;26.73;34.58
62847;BME280;49477;35.676;139.586;2023-04-08T04:15:22;99734.97;;;26.48;34.85
62847;BME280;49477;35.676;139.586;2023-04-08T04:17:51;99725.94;;;26.70;34.99
62847;BME280;49477;35.676;139.586;2023-04-08T04:20:21;99721.69;;;26.51;34.31
62847;BME280;49477;35.676;139.586;2023-04-08T04:22:50;99719.38;;;26.75;34.04
62847;BME280;49477;35.676;139.586;2023-04-08T04:25:20;99706.92;;;26.75;35.15
62847;BME280;49477;35.676;139.586;2023-04-08T04:27:49;99695.38;;;26.80;34.80
62847;BME280;49477;35.676;139.586;2023-04-08T04:30:19;99691.22;;;26.64;34.96
62847;BME280;49477;35.676;139.586;2023-04-08T04:32:48;99686.91;;;26.68;35.03
62847;BME280;49477;35.676;139.586;2023-04-08T04:35:18;99682.01;;;26.66;35.67
62847;BME280;49477;35.676;139.586;2023-04-08T04:37:47;99688.31;;;26.89;36.12
62847;BME280;49477;35.676;139.586;2023-04-08T04:40:16;99683.70;;;26.70;36.95
62847;BME280;49477;35.676;139.586;2023-04-08T04:42:46;99677.28;;;26.71;37.52
62847;BME280;49477;35.676;139.586;2023-04-08T04:45:16;99674.89;;;26.74;37.41
62847;BME280;49477;35.676;139.586;2023-04-08T04:47:45;99673.35;;;26.76;36.87
62847;BME280;49477;35.676;139.586;2023-04-08T04:50:15;99669.84;;;27.15;36.74
62847;BME280;49477;35.676;139.586;2023-04-08T04:52:44;99668.38;;;26.71;36.15
62847;BME280;49477;35.676;139.586;2023-04-08T04:55:14;99668.63;;;26.65;36.07
62847;BME280;49477;35.676;139.586;2023-04-08T04:57:43;99667.67;;;26.60;35.91
62847;BME280;49477;35.676;139.586;2023-04-08T05:00:13;99677.43;;;26.52;34.39
62847;BME280;49477;35.676;139.586;2023-04-08T05:02:42;99685.88;;;26.71;35.66
62847;BME280;49477;35.676;139.586;2023-04-08T05:05:12;99687.84;;;26.42;35.56
62847;BME280;49477;35.676;139.586;2023-04-08T05:07:41;99689.29;;;26.35;35.54
62847;BME280;49477;35.676;139.586;2023-04-08T05:10:11;99692.01;;;26.51;34.82
62847;BME280;49477;35.676;139.586;2023-04-08T05:12:40;99695.92;;;26.21;34.93
62847;BME280;49477;35.676;139.586;2023-04-08T05:15:10;99706.08;;;26.35;35.01
62847;BME280;49477;35.676;139.586;2023-04-08T05:17:39;99702.97;;;26.51;34.81
62847;BME280;49477;35.676;139.586;2023-04-08T05:20:09;99705.87;;;26.42;35.09
62847;BME280;49477;35.676;139.586;2023-04-08T05:22:38;99712.20;;;26.34;34.77
62847;BME280;49477;35.676;139.586;2023-04-08T05:25:08;99697.19;;;25.86;35.42
62847;BME280;49477;35.676;139.586;2023-04-08T05:27:37;99693.48;;;26.29;35.46
62847;BME280;49477;35.676;139.586;2023-04-08T05:30:08;99705.73;;;25.91;34.80
62847;BME280;49477;35.676;139.586;2023-04-08T05:32:37;99693.63;;;25.93;35.80
62847;BME280;49477;35.676;139.586;2023-04-08T05:35:07;99669.86;;;26.08;35.47
62847;BME280;49477;35.676;139.586;2023-04-08T05:37:37;99670.44;;;26.08;35.70
62847;BME280;49477;35.676;139.586;2023-04-08T05:40:07;99680.31;;;26.03;35.49
62847;BME280;49477;35.676;139.586;2023-04-08T05:42:37;99677.87;;;26.01;35.38
62847;BME280;49477;35.676;139.586;2023-04-08T05:45:07;99673.90;;;25.95;35.42
62847;BME280;49477;35.676;139.586;2023-04-08T05:47:36;99673.20;;;26.21;35.01
62847;BME280;49477;35.676;139.586;2023-04-08T05:50:06;99678.91;;;25.91;35.45
62847;BME280;49477;35.676;139.586;2023-04-08T05:52:36;99676.44;;;25.93;35.73
62847;BME280;49477;35.676;139.586;2023-04-08T05:55:06;99676.98;;;25.87;35.24
62847;BME280;49477;35.676;139.586;2023-04-08T05:57:35;99682.34;;;25.87;35.83
62847;BME280;49477;35.676;139.586;2023-04-08T06:00:07;99686.30;;;25.83;35.42
62847;BME280;49477;35.676;139.586;2023-04-08T06:02:37;99705.24;;;25.79;35.14
62847;BME280;49477;35.676;139.586;2023-04-08T06:05:07;99712.06;;;25.46;35.42
62847;BME280;49477;35.676;139.586;2023-04-08T06:07:36;99707.89;;;25.96;35.66
62847;BME280;49477;35.676;139.586;2023-04-08T06:10:07;99705.14;;;25.94;35.95
62847;BME280;49477;35.676;139.586;2023-04-08T06:12:37;99713.06;;;25.47;34.98
62847;BME280;49477;35.676;139.586;2023-04-08T06:15:07;99726.32;;;25.53;35.16
62847;BME280;49477;35.676;139.586;2023-04-08T06:17:37;99717.00;;;25.56;35.86
62847;BME280;49477;35.676;139.586;2023-04-08T06:20:08;99722.59;;;25.43;35.74
62847;BME280;49477;35.676;139.586;2023-04-08T06:22:38;99720.75;;;25.75;35.71
62847;BME280;49477;35.676;139.586;2023-04-08T06:25:08;99722.12;;;25.42;35.97
62847;BME280;49477;35.676;139.586;2023-04-08T06:27:37;99722.95;;;25.37;35.79
62847;BME280;49477;35.676;139.586;2023-04-08T06:30:07;99729.79;;;25.25;36.12
62847;BME280;49477;35.676;139.586;2023-04-08T06:32:37;99705.26;;;24.99;36.26
62847;BME280;49477;35.676;139.586;2023-04-08T06:35:07;99698.86;;;25.15;36.09
62847;BME280;49477;35.676;139.586;2023-04-08T06:37:36;99708.30;;;25.15;36.28
62847;BME280;49477;35.676;139.586;2023-04-08T06:40:07;99708.85;;;25.29;36.05
62847;BME280;49477;35.676;139.586;2023-04-08T06:42:36;99700.57;;;25.09;36.16
62847;BME280;49477;35.676;139.586;2023-04-08T06:45:06;99714.66;;;25.29;36.00
62847;BME280;49477;35.676;139.586;2023-04-08T06:47:36;99702.04;;;25.19;36.06
62847;BME280;49477;35.676;139.586;2023-04-08T06:50:06;99704.26;;;25.13;35.62
62847;BME280;49477;35.676;139.586;2023-04-08T06:52:36;99707.66;;;25.02;35.83
62847;BME280;49477;35.676;139.586;2023-04-08T06:55:06;99715.12;;;24.88;36.36
62847;BME280;49477;35.676;139.586;2023-04-08T06:57:36;99723.41;;;24.81;36.25
62847;BME280;49477;35.676;139.586;2023-04-08T07:00:07;99730.22;;;24.73;36.34
62847;BME280;49477;35.676;139.586;2023-04-08T07:02:36;99738.59;;;24.90;36.54
62847;BME280;49477;35.676;139.586;2023-04-08T07:05:06;99722.61;;;24.89;36.36
62847;BME280;49477;35.676;139.586;2023-04-08T07:07:35;99722.80;;;24.79;36.58
62847;BME280;49477;35.676;139.586;2023-04-08T07:10:05;99728.42;;;24.81;36.79
62847;BME280;49477;35.676;139.586;2023-04-08T07:12:34;99724.54;;;24.76;36.83
62847;BME280;49477;35.676;139.586;2023-04-08T07:15:04;99711.82;;;24.73;36.92
62847;BME280;49477;35.676;139.586;2023-04-08T07:17:34;99725.29;;;24.96;36.81
62847;BME280;49477;35.676;139.586;2023-04-08T07:20:04;99735.04;;;24.62;36.64
62847;BME280;49477;35.676;139.586;2023-04-08T07:22:34;99744.40;;;24.59;36.59
62847;BME280;49477;35.676;139.586;2023-04-08T07:25:03;99751.67;;;24.54;36.83
62847;BME280;49477;35.676;139.586;2023-04-08T07:27:34;99740.81;;;24.77;36.79
62847;BME280;49477;35.676;139.586;2023-04-08T07:30:03;99745.08;;;24.97;36.70
62847;BME280;49477;35.676;139.586;2023-04-08T07:32:33;99744.75;;;24.90;36.62
62847;BME280;49477;35.676;139.586;2023-04-08T07:35:03;99758.42;;;24.37;36.62
62847;BME280;49477;35.676;139.586;2023-04-08T07:37:32;99752.38;;;24.62;36.54
62847;BME280;49477;35.676;139.586;2023-04-08T07:40:02;99747.35;;;24.30;36.49
62847;BME280;49477;35.676;139.586;2023-04-08T07:42:31;99763.29;;;24.26;36.60
62847;BME280;49477;35.676;139.586;2023-04-08T07:45:01;99763.91;;;24.51;36.71
62847;BME280;49477;35.676;139.586;2023-04-08T07:47:30;99776.87;;;24.69;36.70
62847;BME280;49477;35.676;139.586;2023-04-08T07:50:00;99801.13;;;24.16;36.62
62847;BME280;49477;35.676;139.586;2023-04-08T07:52:31;99803.99;;;24.11;36.58
62847;BME280;49477;35.676;139.586;2023-04-08T07:55:00;99805.63;;;24.29;36.55
62847;BME280;49477;35.676;139.586;2023-04-08T07:57:29;99806.95;;;23.98;36.36
62847;BME280;49477;35.676;139.586;2023-04-08T07:59:59;99808.55;;;23.94;36.44
62847;BME280;49477;35.676;139.586;2023-04-08T08:02:28;99813.73;;;24.41;36.60
62847;BME280;49477;35.676;139.586;2023-04-08T08:04:58;99814.78;;;24.38;36.59
62847;BME280;49477;35.676;139.586;2023-04-08T08:07:29;99811.49;;;23.86;36.51
62847;BME280;49477;35.676;139.586;2023-04-08T08:09:58;99809.65;;;24.30;36.51
62847;BME280;49477;35.676;139.586;2023-04-08T08:12:28;99826.42;;;23.95;36.42
62847;BME280;49477;35.676;139.586;2023-04-08T08:14:57;99833.92;;;24.18;36.40
62847;BME280;49477;35.676;139.586;2023-04-08T08:17:27;99839.48;;;23.86;36.66
62847;BME280;49477;35.676;139.586;2023-04-08T08:19:56;99853.87;;;24.11;36.10
62847;BME280;49477;35.676;139.586;2023-04-08T08:22:25;99853.35;;;23.97;36.31
62847;BME280;49477;35.676;139.586;2023-04-08T08:24:57;99853.30;;;23.82;36.57
62847;BME280;49477;35.676;139.586;2023-04-08T08:27:26;99857.08;;;24.07;36.69
62847;BME280;49477;35.676;139.586;2023-04-08T08:29:56;99855.33;;;24.06;36.87
62847;BME280;49477;35.676;139.586;2023-04-08T08:32:25;99869.60;;;24.01;36.12
62847;BME280;49477;35.676;139.586;2023-04-08T08:34:54;99868.06;;;23.55;35.97
62847;BME280;49477;35.676;139.586;2023-04-08T08:37:24;99869.77;;;23.59;34.93
62847;BME280;49477;35.676;139.586;2023-04-08T08:39:53;99879.55;;;23.78;36.80
62847;BME280;49477;35.676;139.586;2023-04-08T08:42:24;99879.36;;;23.68;36.66
62847;BME280;49477;35.676;139.586;2023-04-08T08:44:53;99880.01;;;23.54;37.58
62847;BME280;49477;35.676;139.586;2023-04-08T08:47:22;99881.59;;;23.53;37.78
62847;BME280;49477;35.676;139.586;2023-04-08T08:49:51;99882.87;;;23.19;35.85
62847;BME280;49477;35.676;139.586;2023-04-08T08:52:21;99879.87;;;23.08;34.57
62847;BME280;49477;35.676;139.586;2023-04-08T08:54:57;99897.20;;;23.07;34.27
62847;BME280;49477;35.676;139.586;2023-04-08T08:57:26;99907.32;;;23.15;34.79
62847;BME280;49477;35.676;139.586;2023-04-08T08:59:56;99894.50;;;22.82;33.50
62847;BME280;49477;35.676;139.586;2023-04-08T09:02:27;99914.51;;;23.08;33.75
62847;BME280;49477;35.676;139.586;2023-04-08T09:04:59;99905.74;;;22.82;34.26
62847;BME280;49477;35.676;139.586;2023-04-08T09:07:30;99907.27;;;22.98;33.22
62847;BME280;49477;35.676;139.586;2023-04-08T09:09:59;99914.01;;;22.74;32.38
62847;BME280;49477;35.676;139.586;2023-04-08T09:12:28;99923.82;;;22.78;33.22
62847;BME280;49477;35.676;139.586;2023-04-08T09:15:07;99929.13;;;22.67;33.07
62847;BME280;49477;35.676;139.586;2023-04-08T09:17:37;99931.43;;;22.68;33.21
62847;BME280;49477;35.676;139.586;2023-04-08T09:20:09;99924.58;;;22.68;31.45
62847;BME280;49477;35.676;139.586;2023-04-08T09:23:11;99928.98;;;22.94;31.97
62847;BME280;49477;35.676;139.586;2023-04-08T09:25:40;99956.24;;;22.59;31.85
62847;BME280;49477;35.676;139.586;2023-04-08T09:28:20;99959.77;;;22.62;31.28
62847;BME280;49477;35.676;139.586;2023-04-08T09:30:49;99967.54;;;22.57;32.59
62847;BME280;49477;35.676;139.586;2023-04-08T09:33:19;99975.89;;;22.59;31.68
62847;BME280;49477;35.676;139.586;2023-04-08T09:35:48;99984.26;;;22.67;30.23
62847;BME280;49477;35.676;139.586;2023-04-08T09:38:18;99989.35;;;22.19;28.84
62847;BME280;49477;35.676;139.586;2023-04-08T09:40:47;99993.41;;;22.50;30.84
62847;BME280;49477;35.676;139.586;2023-04-08T09:43:18;100006.28;;;22.48;29.59
62847;BME280;49477;35.676;139.586;2023-04-08T09:45:50;100013.85;;;22.28;29.77
62847;BME280;49477;35.676;139.586;2023-04-08T09:48:23;100020.70;;;22.31;30.88
62847;BME280;49477;35.676;139.586;2023-04-08T09:50:58;100021.85;;;22.10;31.79
62847;BME280;49477;35.676;139.586;2023-04-08T09:53:37;100028.54;;;21.95;29.73
62847;BME280;49477;35.676;139.586;2023-04-08T09:56:09;100043.73;;;22.25;31.85
62847;BME280;49477;35.676;139.586;2023-04-08T09:58:44;100043.39;;;22.00;29.29
62847;BME280;49477;35.676;139.586;2023-04-08T10:01:16;100042.88;;;21.63;30.23
62847;BME280;49477;35.676;139.586;2023-04-08T10:03:52;100033.93;;;22.37;33.61
62847;BME280;49477;35.676;139.586;2023-04-08T10:06:26;100036.83;;;22.21;33.39
62847;BME280;49477;35.676;139.586;2023-04-08T10:08:56;100038.99;;;21.98;34.31
62847;BME280;49477;35.676;139.586;2023-04-08T10:11:26;100040.59;;;22.19;34.43
62847;BME280;49477;35.676;139.586;2023-04-08T10:13:56;100041.17;;;21.98;33.95
62847;BME280;49477;35.676;139.586;2023-04-08T10:16:26;100042.97;;;22.26;35.64
62847;BME280;49477;35.676;139.586;2023-04-08T10:18:56;100047.72;;;22.20;34.12
62847;BME280;49477;35.676;139.586;2023-04-08T10:21:41;100049.99;;;22.14;35.69
62847;BME280;49477;35.676;139.586;2023-04-08T10:24:11;100051.26;;;21.92;36.31
62847;BME280;49477;35.676;139.586;2023-04-08T10:26:41;100067.34;;;22.12;36.14
62847;BME280;49477;35.676;139.586;2023-04-08T10:29:43;100079.97;;;21.95;35.32
62847;BME280;49477;35.676;139.586;2023-04-08T10:32:28;100090.37;;;22.10;36.09
62847;BME280;49477;35.676;139.586;2023-04-08T10:34:58;100103.54;;;22.09;35.44
62847;BME280;49477;35.676;139.586;2023-04-08T10:37:27;100102.26;;;21.73;36.24
62847;BME280;49477;35.676;139.586;2023-04-08T10:39:56;100103.07;;;21.96;35.58
62847;BME280;49477;35.676;139.586;2023-04-08T10:42:29;100104.20;;;21.80;35.02
62847;BME280;49477;35.676;139.586;2023-04-08T10:45:01;100107.14;;;21.99;34.05
62847;BME280;49477;35.676;139.586;2023-04-08T10:47:30;100108.38;;;22.01;34.37
62847;BME280;49477;35.676;139.586;2023-04-08T10:50:00;100119.42;;;22.19;33.89
62847;BME280;49477;35.676;139.586;2023-04-08T10:52:29;100126.61;;;22.01;32.51
62847;BME280;49477;35.676;139.586;2023-04-08T10:54:59;100126.74;;;21.80;32.30
62847;BME280;49477;35.676;139.586;2023-04-08T10:57:29;100117.63;;;21.72;32.32
62847;BME280;49477;35.676;139.586;2023-04-08T10:59:59;100122.86;;;21.76;32.37
62847;BME280;49477;35.676;139.586;2023-04-08T11:02:33;100122.76;;;21.68;33.03
62847;BME280;49477;35.676;139.586;2023-04-08T11:05:03;100131.28;;;21.83;32.20
62847;BME280;49477;35.676;139.586;2023-04-08T11:07:32;100137.36;;;21.95;31.47
62847;BME280;49477;35.676;139.586;2023-04-08T11:10:03;100148.95;;;21.94;32.17
62847;BME280;49477;35.676;139.586;2023-04-08T11:12:32;100153.99;;;22.09;32.60
62847;BME280;49477;35.676;139.586;2023-04-08T11:15:02;100169.58;;;21.59;32.45
62847;BME280;49477;35.676;139.586;2023-04-08T11:17:35;100167.42;;;21.62;31.36
62847;BME280;49477;35.676;139.586;2023-04-08T11:20:04;100174.57;;;21.44;30.60
62847;BME280;49477;35.676;139.586;2023-04-08T11:22:34;100179.79;;;21.53;32.34
62847;BME280;49477;35.676;139.586;2023-04-08T11:25:04;100191.14;;;21.40;31.44
62847;BME280;49477;35.676;139.586;2023-04-08T11:27:35;100195.29;;;21.87;32.23
62847;BME280;49477;35.676;139.586;2023-04-08T11:30:05;100200.97;;;21.21;31.22
62847;BME280;49477;35.676;139.586;2023-04-08T11:32:35;100206.14;;;21.26;30.60
62847;BME280;49477;35.676;139.586;2023-04-08T11:35:06;100209.98;;;21.25;32.05
62847;BME280;49477;35.676;139.586;2023-04-08T11:37:39;100219.08;;;21.79;32.74
62847;BME280;49477;35.676;139.586;2023-04-08T11:40:11;100227.54;;;21.64;31.75
62847;BME280;49477;35.676;139.586;2023-04-08T11:42:40;100226.10;;;21.48;31.31
62847;BME280;49477;35.676;139.586;2023-04-08T11:45:12;100233.88;;;21.51;31.28
62847;BME280;49477;35.676;139.586;2023-04-08T11:47:43;100238.41;;;21.68;30.70
62847;BME280;49477;35.676;139.586;2023-04-08T11:50:12;100247.35;;;21.59;31.43
62847;BME280;49477;35.676;139.586;2023-04-08T11:52:43;100254.82;;;21.65;32.06
62847;BME280;49477;35.676;139.586;2023-04-08T11:55:22;100258.64;;;21.49;31.60
62847;BME280;49477;35.676;139.586;2023-04-08T11:57:51;100265.69;;;20.99;30.39
62847;BME280;49477;35.676;139.586;2023-04-08T12:00:23;100268.12;;;21.44;30.95
62847;BME280;49477;35.676;139.586;2023-04-08T12:02:52;100272.07;;;21.42;32.43
62847;BME280;49477;35.676;139.586;2023-04-08T12:05:21;100270.50;;;21.50;34.16
62847;BME280;49477;35.676;139.586;2023-04-08T12:07:51;100275.09;;;21.34;33.49
62847;BME280;49477;35.676;139.586;2023-04-08T12:10:20;100276.57;;;21.21;33.11
62847;BME280;49477;35.676;139.586;2023-04-08T12:12:50;100281.12;;;21.34;34.57
62847;BME280;49477;35.676;139.586;2023-04-08T12:15:19;100285.95;;;21.42;36.23
62847;BME280;49477;35.676;139.586;2023-04-08T12:17:49;100289.65;;;21.41;38.36
62847;BME280;49477;35.676;139.586;2023-04-08T12:20:19;100296.21;;;21.24;37.24
62847;BME280;49477;35.676;139.586;2023-04-08T12:22:49;100301.19;;;21.17;36.60
62847;BME280;49477;35.676;139.586;2023-04-08T12:25:18;100301.26;;;21.42;36.18
62847;BME280;49477;35.676;139.586;2023-04-08T12:27:48;100307.61;;;21.41;36.32
62847;BME280;49477;35.676;139.586;2023-04-08T12:30:17;100310.79;;;21.42;36.16
62847;BME280;49477;35.676;139.586;2023-04-08T12:32:47;100312.80;;;21.14;36.36
62847;BME280;49477;35.676;139.586;2023-04-08T12:35:16;100316.69;;;21.64;35.91
62847;BME280;49477;35.676;139.586;2023-04-08T12:37:46;100313.82;;;21.33;35.52
62847;BME280;49477;35.676;139.586;2023-04-08T12:40:16;100322.58;;;21.33;35.46
62847;BME280;49477;35.676;139.586;2023-04-08T12:42:46;100328.64;;;21.58;35.79
62847;BME280;49477;35.676;139.586;2023-04-08T12:45:17;100331.78;;;21.32;35.79
62847;BME280;49477;35.676;139.586;2023-04-08T12:47:46;100336.19;;;21.27;35.75
62847;BME280;49477;35.676;139.586;2023-04-08T12:50:15;100338.59;;;21.33;35.55
62847;BME280;49477;35.676;139.586;2023-04-08T12:52:45;100343.25;;;21.35;35.68
62847;BME280;49477;35.676;139.586;2023-04-08T12:55:14;100352.63;;;21.22;35.30